Terminal Aerodrome Forecast
Issued by NWS

Home | Current Version | Previous Version | Text Only | Print | Product List | Glossary On
Versions: 1 2 3 4 5 6 7 8 9 10 11 12 13 14 15 16 17 18 19 20 21
000
FTUS46 KLOX 301100
TAFSBA
TAF
KSBA 301124Z 3012/3112 VRB03KT P6SM SKC
     FM301700 16006KT P6SM BKN150
     FM302100 25008KT P6SM BKN150
     FM310200 VRB03KT P6SM SCT150 WS010/34025KT
     FM311000 VRB03KT P6SM SCT150=

USA.gov is the U.S. government's official web portal to all federal, state and local government web resources and services.